Time;durP1;ratioP1;P1;durP2;ratioP2;P2;SDS_P1;SDS_P2;PMS_P1;PMS_P2;Temp;Humidity;BMP_temperature;BMP_pressure;BME280_temperature;BME280_humidity;BME280_pressure;Samples;Min_cycle;Max_cycle;Signal;HPM_P1;HPM_P2
2024/01/22 00:00:43;;;;;;;18.30;10.05;;;9.90;99.90;;;10.13;100.00;100403.09;4954741;29;20055;-73
2024/01/22 00:03:12;;;;;;;19.10;10.48;;;9.90;99.90;;;10.17;100.00;100433.00;4954205;29;20051;-74
2024/01/22 00:05:42;;;;;;;17.73;10.20;;;10.00;99.90;;;10.18;100.00;100458.56;4954153;28;20520;-74
2024/01/22 00:08:11;;;;;;;14.75;9.43;;;10.00;99.90;;;10.24;100.00;100432.06;4954921;28;20126;-74
2024/01/22 00:10:40;;;;;;;14.20;9.63;;;10.10;99.90;;;10.30;100.00;100417.00;4954633;28;20050;-73
2024/01/22 00:13:08;;;;;;;18.27;9.80;;;10.10;99.90;;;10.31;100.00;100417.91;4956665;29;20122;-74
2024/01/22 00:15:36;;;;;;;18.20;9.70;;;10.10;99.90;;;10.36;100.00;100418.72;4957664;29;20047;-73
2024/01/22 00:18:05;;;;;;;17.30;9.65;;;10.20;99.90;;;10.38;100.00;100403.72;4957718;28;20055;-73
2024/01/22 00:20:34;;;;;;;12.25;8.95;;;10.20;99.90;;;10.39;100.00;100435.44;4957852;29;20474;-75
2024/01/22 00:23:04;;;;;;;16.35;9.30;;;10.20;99.90;;;10.45;100.00;100411.56;4957577;28;20074;-74
2024/01/22 00:25:32;;;;;;;15.75;9.82;;;10.20;99.90;;;10.44;100.00;100415.09;4957660;29;20058;-74
2024/01/22 00:28:01;;;;;;;18.48;9.93;;;10.20;99.90;;;10.46;100.00;100348.97;4957470;29;20047;-73
2024/01/22 00:30:29;;;;;;;13.13;9.02;;;10.30;99.90;;;10.50;100.00;100375.38;4957703;29;20047;-72
2024/01/22 00:32:58;;;;;;;14.45;9.00;;;10.30;99.90;;;10.57;100.00;100389.38;4972604;28;20051;-74
2024/01/22 00:35:27;;;;;;;15.85;9.00;;;10.40;99.90;;;10.60;100.00;100399.94;4957255;29;20503;-74
2024/01/22 00:37:56;;;;;;;14.20;9.02;;;10.40;99.90;;;10.66;100.00;100373.41;4957290;29;20057;-72
2024/01/22 00:40:25;;;;;;;14.23;7.97;;;10.50;99.90;;;10.75;100.00;100360.06;4957292;29;20047;-74
2024/01/22 00:42:55;;;;;;;12.45;7.93;;;10.50;99.90;;;10.79;100.00;100410.28;4957062;29;20556;-75
2024/01/22 00:45:23;;;;;;;16.95;8.80;;;10.60;99.90;;;10.82;100.00;100353.78;4955959;29;20530;-73
2024/01/22 00:47:52;;;;;;;15.35;8.05;;;10.60;99.90;;;10.86;100.00;100351.09;4955306;29;20051;-73
2024/01/22 00:50:20;;;;;;;14.77;7.93;;;10.70;99.90;;;10.88;100.00;100373.09;4955429;29;20133;-74
2024/01/22 00:52:49;;;;;;;15.30;8.38;;;10.70;99.90;;;10.88;100.00;100338.72;4955148;29;20051;-73
2024/01/22 00:55:17;;;;;;;13.13;8.45;;;10.70;99.90;;;10.91;100.00;100314.00;4955267;28;20058;-73
2024/01/22 00:57:47;;;;;;;13.57;8.50;;;10.70;99.90;;;10.88;100.00;100333.41;4955115;29;20412;-73
2024/01/22 01:00:16;;;;;;;16.47;8.40;;;10.70;99.90;;;10.86;100.00;100382.84;4955065;28;20055;-71
2024/01/22 01:02:45;;;;;;;15.32;8.23;;;10.70;99.90;;;10.83;100.00;100319.41;4955008;29;20294;-73
2024/01/22 01:05:14;;;;;;;16.50;7.78;;;10.60;99.90;;;10.81;100.00;100280.63;4955148;29;20043;-72
2024/01/22 01:07:42;;;;;;;12.93;7.93;;;10.60;99.90;;;10.76;100.00;100291.25;4953965;29;20055;-72
2024/01/22 01:10:11;;;;;;;13.50;7.50;;;10.60;99.90;;;10.77;100.00;100382.09;4955350;28;20481;-73
2024/01/22 01:12:39;;;;;;;13.55;7.50;;;10.60;99.90;;;10.81;100.00;100278.84;4954005;29;20051;-71
2024/01/22 01:15:11;;;;;;;11.07;7.38;;;10.60;99.90;;;10.73;100.00;100282.50;4954725;29;20051;-74
2024/01/22 01:17:40;;;;;;;15.00;7.78;;;10.60;99.90;;;10.86;100.00;100266.44;4954828;29;20047;-73
2024/01/22 01:20:10;;;;;;;12.48;7.97;;;10.70;99.90;;;10.89;100.00;100297.25;4955165;29;20110;-73
2024/01/22 01:22:38;;;;;;;12.13;6.70;;;10.70;99.90;;;10.92;100.00;100286.63;4954336;28;20131;-74
2024/01/22 01:25:08;;;;;;;14.20;7.10;;;10.70;99.90;;;10.95;100.00;100262.78;4954823;29;20043;-73
2024/01/22 01:27:36;;;;;;;9.80;6.32;;;10.80;99.90;;;11.05;100.00;100321.72;4954668;28;20341;-72
2024/01/22 01:30:06;;;;;;;16.77;7.53;;;10.80;99.90;;;11.09;100.00;100236.94;4969366;28;20051;-71
2024/01/22 01:32:36;;;;;;;13.65;7.20;;;10.80;99.90;;;11.11;100.00;100255.47;4954571;29;20047;-72
2024/01/22 01:35:07;;;;;;;12.50;6.65;;;10.90;99.90;;;11.13;100.00;100240.44;4955181;28;20051;-72
2024/01/22 01:37:35;;;;;;;13.80;6.22;;;10.90;99.90;;;11.11;100.00;100252.81;4954651;28;20094;-74
2024/01/22 01:40:04;;;;;;;10.43;6.40;;;10.90;99.90;;;11.13;100.00;100293.38;4954297;29;20079;-71
2024/01/22 01:42:33;;;;;;;15.23;6.60;;;10.90;99.90;;;11.14;100.00;100213.94;4954067;28;20055;-75
2024/01/22 01:45:01;;;;;;;10.80;6.65;;;10.90;99.90;;;11.18;100.00;100238.56;4954344;29;20548;-70
2024/01/22 01:47:29;;;;;;;15.02;6.55;;;10.90;99.90;;;11.15;100.00;100257.16;4954171;29;20039;-71
2024/01/22 01:49:59;;;;;;;11.10;6.57;;;11.00;99.90;;;11.13;100.00;100221.91;4954434;28;20387;-72
2024/01/22 01:52:28;;;;;;;12.37;7.00;;;11.00;99.90;;;11.15;100.00;100175.97;4954109;29;20078;-72
2024/01/22 01:54:56;;;;;;;11.43;6.15;;;10.90;99.90;;;11.14;100.00;100178.66;4969070;28;20310;-71
2024/01/22 01:57:27;;;;;;;12.18;6.38;;;10.90;99.90;;;11.11;100.00;100166.34;4954442;28;20038;-71
2024/01/22 01:59:56;;;;;;;11.20;6.53;;;10.90;99.90;;;11.07;100.00;100148.75;4953926;29;20074;-72
2024/01/22 02:02:25;;;;;;;12.30;5.97;;;10.90;99.90;;;11.10;100.00;100184.88;4954415;28;20054;-72
2024/01/22 02:04:54;;;;;;;8.85;5.88;;;10.90;99.90;;;11.11;100.00;100150.47;4953931;28;20290;-73
2024/01/22 02:07:24;;;;;;;7.97;5.47;;;10.90;99.90;;;11.12;100.00;100120.47;4953760;29;20054;-73
2024/01/22 02:09:53;;;;;;;11.88;5.90;;;10.90;99.90;;;11.08;100.00;100124.06;4968874;28;20420;-73
2024/01/22 02:12:22;;;;;;;10.25;5.70;;;10.90;99.90;;;11.10;100.00;100129.31;4953678;29;20057;-73
2024/01/22 02:14:50;;;;;;;12.50;5.95;;;10.90;99.90;;;11.10;100.00;100229.88;4968699;28;20433;-71
2024/01/22 02:17:19;;;;;;;9.30;5.93;;;10.90;99.90;;;11.10;100.00;100126.66;4953698;29;20058;-73
2024/01/22 02:19:49;;;;;;;10.98;5.38;;;10.90;99.90;;;11.12;100.00;100168.09;4953569;28;20469;-71
2024/01/22 02:22:18;;;;;;;10.68;6.03;;;10.90;99.90;;;11.06;100.00;100148.78;4953638;29;20130;-72
2024/01/22 02:24:47;;;;;;;8.52;5.85;;;10.80;99.90;;;11.12;100.00;100177.81;4953285;29;20046;-71
2024/01/22 02:27:16;;;;;;;10.20;5.70;;;10.90;99.90;;;11.09;100.00;100103.78;4953842;29;20047;-72
2024/01/22 02:29:45;;;;;;;9.13;5.57;;;10.80;99.90;;;11.12;100.00;100114.28;4968652;28;20047;-72
2024/01/22 02:32:13;;;;;;;10.10;5.65;;;10.90;99.90;;;11.13;100.00;100102.81;4953690;28;20049;-71
2024/01/22 02:34:42;;;;;;;8.50;5.32;;;10.90;99.90;;;11.12;100.00;100112.53;4952983;28;20055;-71
2024/01/22 02:37:10;;;;;;;10.65;5.60;;;11.00;99.90;;;11.16;100.00;100100.09;4953315;28;20454;-70
2024/01/22 02:39:39;;;;;;;8.45;5.43;;;10.90;99.90;;;11.19;100.00;100119.44;4953264;29;20055;-71
2024/01/22 02:42:08;;;;;;;9.02;5.32;;;11.00;99.90;;;11.24;100.00;100075.25;4953391;29;20474;-70
2024/01/22 02:44:37;;;;;;;8.13;5.22;;;11.00;99.90;;;11.27;100.00;100096.34;4953317;28;20067;-71
2024/01/22 02:47:06;;;;;;;10.18;5.95;;;11.00;99.90;;;11.32;100.00;100133.31;4953408;28;20409;-71
2024/01/22 02:49:35;;;;;;;9.77;5.05;;;11.10;99.90;;;11.30;100.00;100046.00;4953344;29;20054;-70
2024/01/22 02:52:05;;;;;;;9.10;4.90;;;11.10;99.90;;;11.34;100.00;100068.81;4968092;28;20043;-70
2024/01/22 02:54:33;;;;;;;10.13;5.53;;;11.10;99.90;;;11.36;100.00;100085.56;4953242;28;20051;-72
2024/01/22 02:57:01;;;;;;;5.95;5.32;;;11.10;99.90;;;11.40;100.00;100044.03;4952855;29;20110;-71
2024/01/22 02:59:32;;;;;;;6.57;5.22;;;11.20;99.90;;;11.37;100.00;100067.91;4952939;29;20035;-71
2024/01/22 03:02:00;;;;;;;6.25;4.80;;;11.20;99.90;;;11.33;100.00;100019.44;4952952;29;20043;-72
2024/01/22 03:04:29;;;;;;;5.68;4.97;;;11.10;99.90;;;11.36;100.00;100106.72;4953044;29;20506;-71
2024/01/22 03:06:57;;;;;;;7.80;5.03;;;11.20;99.90;;;11.33;100.00;100035.31;4968109;28;20057;-73
2024/01/22 03:09:26;;;;;;;6.38;5.13;;;11.10;99.90;;;11.35;100.00;100041.47;4967868;28;20138;-71
2024/01/22 03:11:54;;;;;;;7.53;5.20;;;11.10;99.90;;;11.35;100.00;100036.16;4952848;29;20088;-69
2024/01/22 03:14:23;;;;;;;10.02;5.03;;;11.20;99.90;;;11.39;100.00;100019.31;4952844;29;20501;-72
2024/01/22 03:16:53;;;;;;;7.68;4.75;;;11.20;99.90;;;11.33;100.00;100016.78;4952699;29;20083;-70
2024/01/22 03:19:21;;;;;;;7.73;5.40;;;11.10;99.90;;;11.30;100.00;100016.00;4952770;29;20051;-71
2024/01/22 03:21:50;;;;;;;6.57;4.90;;;11.10;99.90;;;11.38;100.00;100045.84;4952735;29;20877;-70
2024/01/22 03:24:18;;;;;;;7.53;5.13;;;11.10;99.90;;;11.33;100.00;99995.63;4952708;29;20055;-72
2024/01/22 03:26:47;;;;;;;6.28;4.82;;;11.10;99.90;;;11.35;100.00;100027.34;4952894;29;20043;-71
2024/01/22 03:29:15;;;;;;;5.80;5.22;;;11.10;99.90;;;11.30;100.00;100055.69;4952981;29;20055;-73
2024/01/22 03:31:43;;;;;;;7.50;5.28;;;11.10;99.90;;;11.33;100.00;100075.03;4952603;29;20195;-72
2024/01/22 03:34:13;;;;;;;6.20;4.47;;;11.10;99.90;;;11.31;100.00;100068.91;4952807;29;20074;-72
2024/01/22 03:36:42;;;;;;;6.93;4.90;;;11.10;99.90;;;11.34;100.00;100076.78;4967425;28;20051;-71
2024/01/22 03:39:10;;;;;;;6.47;4.82;;;11.10;99.90;;;11.33;100.00;99979.72;4967559;28;20066;-73
2024/01/22 03:41:41;;;;;;;6.82;5.28;;;11.10;99.90;;;11.28;100.00;100005.44;4953179;29;20050;-71
2024/01/22 03:44:09;;;;;;;6.75;4.72;;;11.10;99.90;;;11.29;100.00;100023.06;4952466;29;20451;-73
2024/01/22 03:46:38;;;;;;;7.85;5.55;;;11.10;99.90;;;11.33;100.00;100053.88;4953159;28;20078;-71
2024/01/22 03:49:06;;;;;;;5.68;4.40;;;11.10;99.90;;;11.34;100.00;100021.16;4956370;29;20497;-72
2024/01/22 03:51:36;;;;;;;5.85;4.57;;;11.10;99.90;;;11.35;100.00;100027.34;4955515;29;20054;-72
2024/01/22 03:54:05;;;;;;;5.60;5.10;;;11.10;99.90;;;11.36;100.00;100010.56;4957052;29;20050;-72
2024/01/22 03:56:33;;;;;;;7.05;4.50;;;11.10;99.90;;;11.38;100.00;100040.53;4956577;28;20074;-71
2024/01/22 03:59:02;;;;;;;6.70;4.90;;;11.20;99.90;;;11.41;100.00;100011.34;4971283;28;20106;-72
2024/01/22 04:01:30;;;;;;;6.47;5.13;;;11.20;99.90;;;11.35;100.00;99983.22;4955991;29;20043;-71
2024/01/22 04:03:59;;;;;;;7.07;5.15;;;11.10;99.90;;;11.35;100.00;99990.28;4956343;29;20122;-70
2024/01/22 04:06:27;;;;;;;5.50;5.00;;;11.10;99.90;;;11.39;100.00;100040.50;4956536;29;20047;-70
2024/01/22 04:08:57;;;;;;;9.02;4.65;;;11.20;99.90;;;11.41;100.00;100006.03;4956206;29;20378;-71
2024/01/22 04:11:26;;;;;;;6.13;4.90;;;11.20;99.90;;;11.44;100.00;100029.81;4956594;28;20114;-72
2024/01/22 04:13:54;;;;;;;6.05;4.35;;;11.20;99.90;;;11.45;100.00;100007.72;4956694;29;20301;-70
2024/01/22 04:16:23;;;;;;;9.82;4.55;;;11.20;99.90;;;11.33;100.00;99986.78;4956027;29;20142;-69
2024/01/22 04:18:51;;;;;;;6.30;5.25;;;11.20;99.90;;;11.44;100.00;99974.22;4955844;29;20043;-71
2024/01/22 04:21:20;;;;;;;6.43;4.40;;;11.20;99.90;;;11.51;100.00;99984.63;4955735;29;20451;-68
2024/01/22 04:23:48;;;;;;;6.80;5.00;;;11.30;99.90;;;11.52;100.00;100015.50;4955782;29;20048;-71
2024/01/22 04:26:18;;;;;;;4.47;4.15;;;11.30;99.90;;;11.50;100.00;100017.31;4955680;29;20050;-71
2024/01/22 04:28:46;;;;;;;6.00;4.73;;;11.30;99.90;;;11.54;100.00;100026.03;4955701;28;20071;-71
2024/01/22 04:31:15;;;;;;;5.47;4.60;;;11.30;99.90;;;11.53;100.00;100059.63;4956042;29;20058;-72
2024/01/22 04:33:44;;;;;;;5.15;4.65;;;11.30;99.90;;;11.59;100.00;100021.53;4955825;29;20047;-72
2024/01/22 04:36:13;;;;;;;7.72;4.20;;;11.30;99.90;;;11.56;100.00;100043.66;4955390;29;20051;-71
2024/01/22 04:38:42;;;;;;;5.90;4.70;;;11.30;99.90;;;11.56;100.00;100011.00;4955663;28;20472;-72
2024/01/22 04:41:11;;;;;;;5.30;4.90;;;11.40;99.90;;;11.58;100.00;100056.84;4955402;29;20039;-71
2024/01/22 04:43:41;;;;;;;6.70;5.25;;;11.30;99.90;;;11.57;100.00;100065.72;4955137;29;20055;-71
2024/01/22 04:46:09;;;;;;;6.55;4.80;;;11.30;99.90;;;11.57;100.00;100023.34;4955689;29;20331;-70
2024/01/22 04:48:38;;;;;;;7.45;5.18;;;11.30;99.90;;;11.57;100.00;100020.69;4955502;29;20135;-70
2024/01/22 04:51:06;;;;;;;6.38;5.30;;;11.40;99.90;;;11.60;100.00;100037.38;4955650;29;20159;-72
2024/01/22 04:53:36;;;;;;;6.65;5.95;;;11.40;99.90;;;11.63;100.00;100079.69;4955208;28;20415;-71
2024/01/22 04:56:05;;;;;;;7.40;5.72;;;11.40;99.90;;;11.62;100.00;100062.06;4955118;28;20051;-71
2024/01/22 04:58:34;;;;;;;7.00;6.30;;;11.40;99.90;;;11.67;100.00;100007.22;4954411;28;20459;-71
2024/01/22 05:01:04;;;;;;;6.80;5.93;;;11.40;99.90;;;11.64;100.00;100040.84;4970041;28;20453;-70
2024/01/22 05:03:32;;;;;;;9.18;5.93;;;11.40;99.90;;;11.67;100.00;100032.88;4955545;28;20051;-71
2024/01/22 05:06:00;;;;;;;8.60;6.85;;;11.50;99.90;;;11.70;100.00;100046.03;4955273;29;20428;-71
2024/01/22 05:08:29;;;;;;;9.35;6.30;;;11.50;99.90;;;11.68;100.00;100027.53;4954973;28;20072;-69
2024/01/22 05:10:57;;;;;;;8.10;5.88;;;11.50;99.90;;;11.71;100.00;100053.94;4954929;29;20464;-70
2024/01/22 05:13:26;;;;;;;9.52;5.80;;;11.40;99.90;;;11.69;100.00;100058.41;4955069;28;20527;-70
2024/01/22 05:15:54;;;;;;;12.75;5.95;;;11.50;99.90;;;11.75;100.00;100045.03;4954796;29;20086;-70
2024/01/22 05:18:24;;;;;;;10.63;5.20;;;11.50;99.90;;;11.73;100.00;100051.25;4954716;29;20102;-73
2024/01/22 05:20:53;;;;;;;9.80;4.70;;;11.50;99.90;;;11.78;100.00;100057.34;4954822;29;20142;-71
2024/01/22 05:23:21;;;;;;;14.90;5.47;;;11.50;99.90;;;11.88;100.00;100050.94;4954551;29;20061;-71
2024/01/22 05:25:50;;;;;;;15.80;5.50;;;11.60;99.90;;;11.93;100.00;100026.94;4954575;29;20105;-71
2024/01/22 05:28:18;;;;;;;13.82;4.97;;;11.70;99.90;;;11.98;100.00;100033.03;4954531;29;20134;-71
2024/01/22 05:30:47;;;;;;;20.90;5.18;;;11.70;99.90;;;12.03;100.00;100049.69;4954737;29;20051;-70
2024/01/22 05:33:15;;;;;;;21.80;6.25;;;11.80;99.90;;;12.09;100.00;100065.44;4954422;29;20055;-70
2024/01/22 05:35:45;;;;;;;23.13;6.03;;;11.90;99.90;;;12.11;100.00;100058.34;4954680;29;20047;-69
2024/01/22 05:38:14;;;;;;;25.85;6.55;;;11.90;99.90;;;12.11;100.00;100067.16;4954332;29;20035;-72
2024/01/22 05:40:42;;;;;;;27.98;6.43;;;11.90;99.90;;;12.15;100.00;100066.19;4954598;29;20055;-69
2024/01/22 05:43:11;;;;;;;26.95;6.80;;;12.00;99.90;;;12.18;100.00;100062.56;4954122;29;20047;-69
2024/01/22 05:45:39;;;;;;;33.20;7.25;;;12.00;99.90;;;12.07;100.00;100052.25;4954330;28;20043;-71
2024/01/22 05:48:09;;;;;;;36.08;7.65;;;11.90;99.90;;;12.22;100.00;100058.94;4954145;29;20532;-70
2024/01/22 05:50:38;;;;;;;33.08;7.97;;;12.00;99.90;;;12.33;100.00;100088.75;4954356;28;20047;-69
2024/01/22 05:53:09;;;;;;;35.22;7.82;;;12.10;99.90;;;12.26;100.00;100064.16;4954025;29;20066;-71
2024/01/22 05:55:39;;;;;;;55.83;8.83;;;12.10;99.90;;;12.33;100.00;100084.28;4969457;28;20142;-70
2024/01/22 05:58:08;;;;;;;43.95;9.50;;;12.10;99.90;;;12.10;100.00;100030.94;4968748;28;20369;-70
2024/01/22 06:00:38;;;;;;;51.50;10.25;;;12.10;99.90;;;12.38;100.00;100090.38;4953977;29;20043;-70
2024/01/22 06:03:07;;;;;;;43.03;9.85;;;12.10;99.90;;;12.43;100.00;100087.59;4954374;28;20043;-71
2024/01/22 06:05:36;;;;;;;46.55;10.00;;;12.20;99.90;;;12.43;100.00;100056.66;4954215;28;20397;-71
2024/01/22 06:08:06;;;;;;;46.63;9.93;;;12.20;99.90;;;12.46;100.00;100088.41;4954081;29;20048;-70
2024/01/22 06:10:36;;;;;;;40.95;8.60;;;12.20;99.90;;;12.47;100.00;100094.56;4954152;28;20501;-69
2024/01/22 06:13:04;;;;;;;43.77;9.83;;;12.20;99.90;;;12.54;100.00;100074.94;4968532;28;20065;-71
2024/01/22 06:15:33;;;;;;;44.80;9.13;;;12.30;99.90;;;12.54;100.00;100096.19;4954163;29;20314;-70
2024/01/22 06:18:01;;;;;;;48.63;9.98;;;12.30;99.90;;;12.50;100.00;100067.97;4953456;29;20051;-70
2024/01/22 06:20:32;;;;;;;36.58;8.68;;;12.30;99.90;;;12.61;100.00;100090.69;4968758;28;20485;-70
2024/01/22 06:23:03;;;;;;;44.75;9.25;;;12.40;99.90;;;12.61;100.00;100092.44;4953796;28;20158;-70
2024/01/22 06:25:31;;;;;;;51.28;9.57;;;12.40;99.90;;;12.58;100.00;100076.63;4953513;29;20115;-70
2024/01/22 06:28:02;;;;;;;45.55;10.75;;;12.40;99.90;;;12.60;100.00;100122.56;4953584;28;20409;-69
2024/01/22 06:30:31;;;;;;;52.90;10.88;;;12.40;99.90;;;12.55;100.00;100077.56;4953460;28;20057;-71
2024/01/22 06:32:59;;;;;;;48.92;10.13;;;12.40;99.90;;;12.59;100.00;100081.88;4953277;28;20082;-72
2024/01/22 06:35:28;;;;;;;52.78;10.85;;;12.40;99.90;;;12.60;100.00;100093.38;4953518;29;20053;-71
2024/01/22 06:37:56;;;;;;;49.13;10.57;;;12.40;99.90;;;12.65;100.00;100083.50;4953176;29;20456;-69
2024/01/22 06:40:24;;;;;;;58.78;12.68;;;12.40;99.90;;;12.61;100.00;100103.06;4952139;29;20439;-74
2024/01/22 06:42:53;;;;;;;63.55;12.43;;;12.40;99.90;;;12.61;100.00;100108.38;4953219;29;20127;-76
2024/01/22 06:45:23;;;;;;;62.22;11.15;;;12.40;99.90;;;12.58;100.00;100072.16;4953253;29;20043;-76
2024/01/22 06:47:52;;;;;;;60.92;13.07;;;12.40;99.90;;;12.59;100.00;100084.53;4953218;29;20058;-69
2024/01/22 06:50:20;;;;;;;67.45;12.68;;;12.40;99.90;;;12.60;100.00;100096.03;4953251;29;20074;-71
2024/01/22 06:52:49;;;;;;;66.80;13.02;;;12.40;99.90;;;12.59;100.00;100110.19;4952962;28;20074;-71
2024/01/22 06:55:18;;;;;;;66.57;13.23;;;12.40;99.90;;;12.55;100.00;100097.91;4952963;29;20039;-72
2024/01/22 06:57:48;;;;;;;68.78;14.00;;;12.30;99.90;;;12.55;100.00;100096.13;4952896;29;20126;-73
2024/01/22 07:00:19;;;;;;;61.22;14.20;;;12.30;99.90;;;12.55;100.00;100122.66;4953427;29;20410;-72
2024/01/22 07:02:49;;;;;;;74.75;14.48;;;12.30;99.90;;;12.51;100.00;100053.78;4952870;28;20055;-73
2024/01/22 07:05:18;;;;;;;;;;;12.30;99.90;;;12.52;100.00;100119.22;4953269;29;20404;-72
2024/01/22 07:07:46;;;;;;;76.30;13.52;;;12.30;99.90;;;12.49;100.00;100119.28;4952733;29;19923;-72
2024/01/22 07:10:15;;;;;;;73.65;15.00;;;12.30;99.90;;;12.49;100.00;100095.41;4953277;28;20054;-72
2024/01/22 07:12:43;;;;;;;64.00;13.60;;;12.30;99.90;;;12.51;100.00;100117.44;4967810;28;20150;-71
2024/01/22 07:15:13;;;;;;;77.22;14.93;;;12.20;99.90;;;12.52;100.00;100114.75;4952795;29;20039;-72
2024/01/22 07:17:42;;;;;;;70.13;13.13;;;12.30;99.90;;;12.44;100.00;100135.31;4952684;29;20044;-70
2024/01/22 07:20:14;;;;;;;70.15;14.48;;;12.20;99.90;;;12.48;100.00;100104.28;4952767;28;20070;-72
2024/01/22 07:22:44;;;;;;;72.75;13.50;;;12.20;99.90;;;12.40;100.00;100054.06;4951412;29;20113;-74
2024/01/22 07:25:16;;;;;;;67.40;13.63;;;12.20;99.90;;;12.46;100.00;100130.84;4951572;29;20066;-72
2024/01/22 07:27:45;;;;;;;58.97;12.85;;;12.20;99.90;;;12.47;100.00;100105.16;4953026;29;20062;-72
2024/01/22 07:30:14;;;;;;;61.85;12.52;;;12.20;99.90;;;12.37;100.00;100122.22;4953051;29;20078;-73
2024/01/22 07:32:44;;;;;;;63.20;12.82;;;12.20;99.90;;;12.34;100.00;100141.75;4952592;29;20054;-72
2024/01/22 07:35:15;;;;;;;79.20;13.60;;;12.20;99.90;;;12.40;100.00;100159.28;4951392;29;20522;-71
2024/01/22 07:37:45;;;;;;;70.00;13.68;;;12.10;99.90;;;12.32;100.00;100124.09;4952401;29;20079;-72
2024/01/22 07:40:15;;;;;;;73.32;14.50;;;12.10;99.90;;;12.24;100.00;100139.31;4952900;28;20421;-71
2024/01/22 07:42:44;;;;;;;73.13;14.10;;;12.00;99.90;;;12.15;100.00;100150.13;4952408;29;20054;-71
2024/01/22 07:45:13;;;;;;;74.10;14.90;;;12.00;99.90;;;12.18;100.00;100140.34;4952636;28;20501;-71
2024/01/22 07:47:42;;;;;;;75.60;13.88;;;12.00;99.90;;;12.16;100.00;100162.47;4952483;28;20404;-71
2024/01/22 07:50:13;;;;;;;70.63;14.93;;;11.90;99.90;;;12.12;100.00;100177.59;4952337;29;20054;-72
2024/01/22 07:52:47;;;;;;;76.30;12.73;;;11.90;99.90;;;12.10;100.00;100171.44;4952754;28;20556;-72
2024/01/22 07:55:21;;;;;;;70.85;12.55;;;11.90;99.90;;;11.93;100.00;100170.06;4952614;28;20095;-73
2024/01/22 07:57:53;;;;;;;84.93;15.30;;;11.80;99.90;;;12.07;100.00;100205.09;4952491;28;20051;-72
2024/01/22 08:00:22;;;;;;;84.82;15.32;;;11.80;99.90;;;12.06;100.00;100192.75;4953312;28;20106;-72
2024/01/22 08:02:51;;;;;;;74.22;14.80;;;11.80;99.90;;;12.08;100.00;100207.72;4952667;28;20496;-73
2024/01/22 08:05:20;;;;;;;72.25;14.90;;;11.80;99.90;;;12.10;100.00;100219.16;4967650;28;20405;-72
2024/01/22 08:07:50;;;;;;;74.55;15.35;;;11.80;99.90;;;12.07;100.00;100215.69;4952305;29;20340;-72
2024/01/22 08:10:18;;;;;;;87.90;14.93;;;11.80;99.90;;;11.95;100.00;100214.19;4967348;28;20047;-75
2024/01/22 08:12:47;;;;;;;81.15;15.75;;;11.80;99.90;;;12.07;100.00;100227.19;4952484;28;20098;-73
2024/01/22 08:15:17;;;;;;;79.03;15.95;;;11.80;99.90;;;12.02;100.00;100222.88;4967181;28;20083;-71
2024/01/22 08:17:46;;;;;;;74.70;16.10;;;11.80;99.90;;;11.95;100.00;100222.13;4952903;29;20051;-69
2024/01/22 08:20:17;;;;;;;86.50;16.30;;;11.70;99.90;;;11.88;100.00;100212.56;4952213;29;20056;-71
2024/01/22 08:22:47;;;;;;;77.28;15.07;;;11.70;99.90;;;11.65;100.00;100197.09;4952040;29;20540;-71
2024/01/22 08:25:19;;;;;;;95.63;17.20;;;11.70;99.90;;;11.90;100.00;100239.91;4952274;28;20094;-73
2024/01/22 08:27:48;;;;;;;89.13;16.80;;;11.70;99.90;;;11.85;100.00;100240.88;4952038;29;20516;-70
2024/01/22 08:30:17;;;;;;;79.13;13.85;;;11.60;99.90;;;11.83;100.00;100250.66;4952301;28;20613;-68
2024/01/22 08:32:45;;;;;;;69.40;14.65;;;11.60;99.90;;;11.72;100.00;100251.75;4952261;28;20063;-69
2024/01/22 08:35:15;;;;;;;79.13;14.07;;;11.50;99.90;;;11.55;100.00;100221.13;4955487;29;20055;-68
2024/01/22 08:37:47;;;;;;;80.63;14.27;;;11.50;99.90;;;11.80;100.00;100272.78;4955418;29;20687;-70
2024/01/22 08:40:21;;;;;;;88.45;15.43;;;11.50;99.90;;;11.56;100.00;100252.88;4955822;29;20409;-70
2024/01/22 08:42:50;;;;;;;80.90;17.00;;;11.50;99.90;;;11.68;100.00;100287.13;4955729;29;20505;-74
2024/01/22 08:45:21;;;;;;;91.18;16.13;;;11.40;99.90;;;11.62;100.00;100286.31;4955400;29;20147;-74
2024/01/22 08:47:50;;;;;;;;;;;11.40;99.90;;;11.60;100.00;100272.22;4955025;29;20070;-80
2024/01/22 08:50:21;;;;;;;65.60;14.30;;;11.40;99.90;;;11.60;100.00;100294.31;4955255;29;19922;-77
2024/01/22 08:52:52;;;;;;;79.28;15.35;;;11.40;99.90;;;11.49;100.00;100275.09;4955230;29;20047;-73
2024/01/22 08:55:23;;;;;;;64.55;12.70;;;11.40;99.90;;;11.53;100.00;100305.03;4955526;29;20066;-73
2024/01/22 08:57:53;;;;;;;73.75;14.02;;;11.30;99.90;;;11.56;100.00;100324.41;4955432;28;20047;-71
2024/01/22 09:00:23;;;;;;;63.25;13.40;;;11.30;99.90;;;11.55;100.00;100320.00;4970068;28;20082;-71
2024/01/22 09:02:53;;;;;;;59.50;12.48;;;11.30;99.90;;;11.29;100.00;100306.31;4955239;28;20079;-71
2024/01/22 09:05:21;;;;;;;58.88;11.88;;;11.20;99.90;;;11.39;100.00;100339.69;4970064;28;20073;-70
2024/01/22 09:07:50;;;;;;;60.67;12.35;;;11.10;99.90;;;11.36;100.00;100346.81;4955159;28;20483;-69
2024/01/22 09:10:18;;;;;;;47.03;10.10;;;11.20;99.90;;;11.33;100.00;100352.16;4955171;29;20132;-70
2024/01/22 09:12:49;;;;;;;49.67;9.70;;;11.10;99.90;;;11.25;100.00;100354.91;4954980;28;20126;-73
2024/01/22 09:15:18;;;;;;;43.25;10.00;;;11.00;99.90;;;11.26;100.00;100350.50;4955101;28;20143;-72
2024/01/22 09:17:48;;;;;;;49.53;9.93;;;11.00;99.90;;;10.81;100.00;100297.38;4954639;29;20051;-73
2024/01/22 09:20:17;;;;;;;48.15;10.23;;;11.00;99.90;;;11.20;100.00;100359.41;4954877;29;20467;-70
2024/01/22 09:22:45;;;;;;;43.22;9.10;;;10.90;99.90;;;11.13;100.00;100360.38;4954685;28;20071;-68
2024/01/22 09:25:14;;;;;;;51.70;10.32;;;10.90;99.90;;;11.11;100.00;100348.94;4954759;29;20051;-69
2024/01/22 09:27:42;;;;;;;46.45;9.35;;;10.90;99.90;;;11.16;100.00;100378.00;4955043;29;20070;-69
2024/01/22 09:30:13;;;;;;;38.17;8.95;;;10.90;99.90;;;11.18;100.00;100381.50;4954803;29;20134;-69
2024/01/22 09:32:46;;;;;;;38.97;9.40;;;10.90;99.90;;;11.19;100.00;100370.88;4970672;28;20473;-70
2024/01/22 09:35:15;;;;;;;34.80;8.75;;;10.90;99.90;;;11.17;100.00;100379.78;4956255;29;20047;-72
2024/01/22 09:37:43;;;;;;;37.95;8.25;;;10.90;99.90;;;11.10;100.00;100376.31;4956240;29;20469;-72
2024/01/22 09:40:13;;;;;;;39.70;9.15;;;10.90;99.90;;;11.17;100.00;100393.84;4956422;29;20134;-71
2024/01/22 09:42:53;;;;;;;33.90;8.13;;;10.90;99.90;;;11.33;100.00;100399.81;4956211;29;20051;-70
2024/01/22 09:45:24;;;;;;;39.90;8.07;;;11.00;99.90;;;11.57;100.00;100410.91;4970492;28;20752;-69
2024/01/22 09:47:53;;;;;;;35.03;8.75;;;11.30;99.90;;;11.62;100.00;100422.31;4956105;29;20552;-70
2024/01/22 09:50:22;;;;;;;43.55;8.98;;;11.40;99.90;;;11.55;100.00;100411.81;4955991;29;20548;-71
2024/01/22 09:52:54;;;;;;;36.40;9.43;;;11.30;99.90;;;11.52;100.00;100412.75;4955914;29;20635;-71
2024/01/22 09:55:23;;;;;;;36.33;8.85;;;11.30;99.90;;;11.67;100.00;100415.19;4956161;29;20043;-71
2024/01/22 09:57:54;;;;;;;47.03;9.35;;;11.40;99.90;;;11.93;99.37;100433.31;4956366;29;20075;-70
2024/01/22 10:00:26;;;;;;;50.75;10.00;;;11.60;99.90;;;12.14;98.52;100429.38;4970598;28;20043;-74
2024/01/22 10:03:00;;;;;;;45.97;9.63;;;11.90;99.90;;;12.38;97.13;100419.22;4970877;28;20505;-71
2024/01/22 10:05:28;;;;;;;47.72;10.25;;;12.20;99.90;;;12.59;95.38;100442.69;4955696;29;20043;-71
2024/01/22 10:07:57;;;;;;;33.53;9.10;;;12.40;99.90;;;12.83;93.85;100433.38;4955557;29;20046;-72